createdAt,value
2022-09-29T00:02:10.663Z,7.20
2022-09-29T00:05:22.526Z,7.10
2022-09-29T00:08:29.515Z,7.70
2022-09-29T00:11:36.609Z,8.90
2022-09-29T00:14:47.977Z,7.20
2022-09-29T00:18:13.201Z,7.30
2022-09-29T00:21:21.552Z,5.90
2022-09-29T00:24:28.651Z,5.60
2022-09-29T00:27:35.600Z,5.70
2022-09-29T00:30:42.587Z,6.60
2022-09-29T00:33:49.757Z,6.20
2022-09-29T00:36:59.740Z,6.40
2022-09-29T00:40:09.662Z,5.70
2022-09-29T00:43:16.618Z,5.80
2022-09-29T00:46:23.644Z,4.90
2022-09-29T00:49:33.641Z,5.30
2022-09-29T00:52:43.676Z,6.50
2022-09-29T00:55:50.712Z,5.40
2022-09-29T00:58:57.877Z,6.10
2022-09-29T01:02:08.715Z,6.20
2022-09-29T01:05:18.694Z,6.80
2022-09-29T01:08:28.718Z,5.90
2022-09-29T01:11:44.729Z,6.80
2022-09-29T01:14:51.739Z,4.80
2022-09-29T01:18:01.780Z,6.30
2022-09-29T01:21:11.760Z,4.50
2022-09-29T01:24:21.810Z,6.40
2022-09-29T01:27:28.813Z,6.00
2022-09-29T01:30:35.855Z,6.80
2022-09-29T01:33:46.831Z,6.00
2022-09-29T01:36:53.805Z,5.00
2022-09-29T01:40:00.744Z,5.50
2022-09-29T01:43:07.872Z,5.50
2022-09-29T01:46:14.850Z,5.40
2022-09-29T01:49:24.816Z,4.90
2022-09-29T01:52:34.793Z,5.70
2022-09-29T01:55:41.801Z,4.00
2022-09-29T01:58:48.851Z,4.50
2022-09-29T02:02:00.071Z,5.50
2022-09-29T02:05:07.847Z,4.00
2022-09-29T02:08:14.969Z,4.50
2022-09-29T02:11:22.955Z,6.60
2022-09-29T02:14:32.919Z,5.20
2022-09-29T02:17:39.890Z,5.50
2022-09-29T02:20:49.894Z,6.00
2022-09-29T02:23:56.865Z,4.50
2022-09-29T02:27:03.900Z,5.50
2022-09-29T02:30:10.980Z,7.50
2022-09-29T02:33:17.922Z,4.80
2022-09-29T02:36:24.924Z,5.70
2022-09-29T02:39:34.907Z,4.30
2022-09-29T02:42:44.904Z,5.10
2022-09-29T02:45:51.979Z,6.90
2022-09-29T02:49:01.959Z,5.80
2022-09-29T02:52:11.929Z,5.90
2022-09-29T02:55:22.031Z,9.70
2022-09-29T02:58:32.088Z,8.10
2022-09-29T03:01:39.003Z,5.20
2022-09-29T03:04:49.002Z,5.90
2022-09-29T03:07:55.969Z,6.20
2022-09-29T03:11:02.998Z,7.70
2022-09-29T03:14:12.964Z,5.90
2022-09-29T03:17:20.035Z,5.80
2022-09-29T03:20:27.037Z,5.30
2022-09-29T03:23:34.094Z,7.00
2022-09-29T03:26:41.045Z,5.20
2022-09-29T03:29:48.084Z,7.40
2022-09-29T03:32:58.055Z,6.90
2022-09-29T03:36:08.070Z,6.10
2022-09-29T03:39:18.160Z,6.60
2022-09-29T03:42:28.138Z,8.00
2022-09-29T03:45:41.050Z,7.50
2022-09-29T03:48:54.063Z,9.40
2022-09-29T03:52:01.221Z,6.60
2022-09-29T03:55:14.111Z,5.00
2022-09-29T03:58:24.127Z,10.10
2022-09-29T04:01:34.162Z,10.30
2022-09-29T04:04:41.194Z,8.60
2022-09-29T04:07:54.246Z,9.20
2022-09-29T04:11:17.303Z,7.30
2022-09-29T04:14:29.279Z,11.80
2022-09-29T04:17:39.258Z,5.10
2022-09-29T04:20:53.306Z,6.40
2022-09-29T04:24:10.400Z,7.30
2022-09-29T04:27:34.316Z,7.00
2022-09-29T04:30:46.212Z,7.90
2022-09-29T04:33:53.269Z,5.30
2022-09-29T04:37:00.323Z,6.50
2022-09-29T04:40:16.316Z,6.70
2022-09-29T04:43:27.263Z,5.70
2022-09-29T04:46:37.281Z,6.90
2022-09-29T04:49:44.288Z,10.00
2022-09-29T04:52:51.363Z,11.20
2022-09-29T04:56:07.284Z,8.20
2022-09-29T04:59:18.353Z,7.80
2022-09-29T05:02:34.406Z,9.40
2022-09-29T05:05:44.201Z,9.40
2022-09-29T05:08:54.380Z,7.40
2022-09-29T05:12:04.366Z,6.90
2022-09-29T05:15:12.397Z,6.80
2022-09-29T05:18:19.382Z,6.70
2022-09-29T05:21:29.622Z,7.80
2022-09-29T05:24:39.328Z,8.40
2022-09-29T05:27:52.460Z,7.30
2022-09-29T05:31:05.484Z,8.20
2022-09-29T05:34:15.408Z,11.30
2022-09-29T05:37:25.466Z,7.60
2022-09-29T05:40:32.705Z,9.10
2022-09-29T05:44:16.826Z,11.90
2022-09-29T05:47:26.453Z,14.30
2022-09-29T05:50:42.482Z,14.00
2022-09-29T05:53:54.640Z,13.00
2022-09-29T05:57:12.883Z,8.60
2022-09-29T06:00:23.493Z,10.10
2022-09-29T06:03:30.477Z,11.50
2022-09-29T06:06:40.502Z,9.30
2022-09-29T06:09:53.444Z,8.50
2022-09-29T06:13:10.543Z,13.30
2022-09-29T06:16:23.539Z,8.60
2022-09-29T06:19:36.597Z,14.90
2022-09-29T06:22:50.639Z,8.60
2022-09-29T06:26:06.525Z,12.10
2022-09-29T06:29:14.580Z,9.40
2022-09-29T06:32:22.553Z,8.80
2022-09-29T06:35:29.625Z,12.70
2022-09-29T06:38:36.527Z,8.60
2022-09-29T06:41:46.557Z,7.30
2022-09-29T06:44:56.714Z,6.80
2022-09-29T06:48:04.545Z,7.60
2022-09-29T06:51:11.576Z,11.80
2022-09-29T06:54:21.613Z,6.50
2022-09-29T06:57:28.617Z,11.10
2022-09-29T07:00:41.668Z,12.60
2022-09-29T07:03:51.591Z,8.10
2022-09-29T07:06:58.601Z,8.20
2022-09-29T07:10:09.805Z,8.90
2022-09-29T07:13:19.605Z,7.00
2022-09-29T07:16:29.846Z,9.50
2022-09-29T07:19:37.679Z,9.40
2022-09-29T07:22:47.719Z,10.40
2022-09-29T07:26:00.668Z,10.70
2022-09-29T07:29:11.374Z,10.40
2022-09-29T07:32:28.217Z,15.90
2022-09-29T07:35:39.754Z,15.00
2022-09-29T07:39:12.865Z,10.10
2022-09-29T07:42:19.890Z,9.00
2022-09-29T07:45:36.051Z,8.10
2022-09-29T07:48:45.982Z,9.60
2022-09-29T07:51:55.951Z,7.60
2022-09-29T07:55:02.896Z,9.60
2022-09-29T08:02:11.954Z,9.70
2022-09-29T08:05:21.988Z,9.40
2022-09-29T08:08:29.052Z,11.00
2022-09-29T08:11:37.123Z,9.60
2022-09-29T08:14:44.425Z,6.10
2022-09-29T08:17:54.965Z,13.70
2022-09-29T08:21:06.017Z,6.20
2022-09-29T08:24:16.773Z,7.80
2022-09-29T08:27:27.996Z,3.50
2022-09-29T08:30:35.318Z,5.50
2022-09-29T08:33:48.072Z,5.80
2022-09-29T08:36:55.094Z,7.40
2022-09-29T08:40:05.049Z,4.50
2022-09-29T08:43:21.654Z,4.70
2022-09-29T08:46:38.186Z,4.80
2022-09-29T08:49:45.134Z,4.00
2022-09-29T08:52:52.902Z,5.70
2022-09-29T08:56:05.326Z,3.70
2022-09-29T08:59:16.109Z,6.90
2022-09-29T09:02:23.162Z,4.30
2022-09-29T09:05:33.114Z,5.20
2022-09-29T09:08:40.250Z,4.70
2022-09-29T09:11:53.238Z,4.90
2022-09-29T09:15:01.222Z,5.70
2022-09-29T09:18:11.238Z,6.90
2022-09-29T09:21:22.012Z,5.90
2022-09-29T09:24:32.143Z,6.70
2022-09-29T09:27:44.211Z,7.20
2022-09-29T09:30:57.302Z,6.30
2022-09-29T09:34:07.276Z,5.50
2022-09-29T09:37:14.436Z,6.90
2022-09-29T09:40:31.222Z,6.30
2022-09-29T09:43:42.209Z,5.30
2022-09-29T09:46:55.275Z,4.10
2022-09-29T09:50:02.464Z,4.90
2022-09-29T09:53:33.276Z,8.80
2022-09-29T09:56:51.315Z,4.90
2022-09-29T10:00:07.331Z,5.00
2022-09-29T10:03:17.479Z,6.00
2022-09-29T10:06:25.259Z,7.10
2022-09-29T10:09:32.427Z,14.20
2022-09-29T10:12:43.301Z,9.10
2022-09-29T10:16:10.442Z,5.10
2022-09-29T10:19:20.495Z,5.40
2022-09-29T10:22:36.444Z,4.90
2022-09-29T10:26:07.489Z,2.90
2022-09-29T10:29:35.294Z,3.70
2022-09-29T10:33:03.357Z,6.40
2022-09-29T10:36:27.936Z,5.80
2022-09-29T10:39:38.475Z,5.10
2022-09-29T10:42:54.409Z,9.90
2022-09-29T10:49:31.918Z,3.30
2022-09-29T10:52:52.413Z,3.60
2022-09-29T10:56:12.348Z,4.60
2022-09-29T10:59:22.560Z,4.20
2022-09-29T11:02:34.373Z,3.90
2022-09-29T11:05:59.823Z,5.80
2022-09-29T11:09:16.541Z,4.10
2022-09-29T11:12:24.470Z,3.90
2022-09-29T11:15:48.486Z,3.70
2022-09-29T11:18:59.758Z,7.60
2022-09-29T11:22:08.438Z,4.10
2022-09-29T11:25:15.399Z,5.80
2022-09-29T11:32:48.792Z,5.60
2022-09-29T11:36:03.484Z,5.10
2022-09-29T11:39:20.303Z,5.40
2022-09-29T11:42:30.293Z,6.20
2022-09-29T11:45:41.349Z,3.70
2022-09-29T11:48:51.308Z,4.30
2022-09-29T11:51:58.387Z,6.00
2022-09-29T11:55:05.382Z,5.30
2022-09-29T11:58:18.329Z,4.40
2022-09-29T12:01:25.317Z,5.50
2022-09-29T12:04:36.335Z,7.60
2022-09-29T12:07:43.420Z,4.30
2022-09-29T12:10:54.357Z,3.80
2022-09-29T12:14:11.341Z,4.30
2022-09-29T12:17:18.375Z,4.90
2022-09-29T12:20:25.460Z,5.40
2022-09-29T12:23:35.405Z,3.20
2022-09-29T12:26:48.394Z,3.30
2022-09-29T12:29:58.618Z,4.80
2022-09-29T12:33:06.471Z,3.40
2022-09-29T12:36:19.460Z,5.00
2022-09-29T12:39:26.469Z,6.90
2022-09-29T12:42:36.520Z,4.60
2022-09-29T12:45:46.718Z,4.80
2022-09-29T12:49:13.608Z,4.80
2022-09-29T12:52:22.659Z,6.60
2022-09-29T12:55:44.471Z,3.00
2022-09-29T12:58:57.282Z,4.00
2022-09-29T13:02:13.615Z,5.30
2022-09-29T13:05:20.547Z,6.60
2022-09-29T13:08:33.546Z,3.80
2022-09-29T13:11:43.540Z,3.90
2022-09-29T13:14:50.530Z,3.10
2022-09-29T13:17:57.634Z,5.20
2022-09-29T13:21:10.575Z,7.20
2022-09-29T13:24:20.493Z,8.00
2022-09-29T13:27:27.555Z,7.40
2022-09-29T13:30:37.653Z,3.60
2022-09-29T13:33:48.599Z,3.40
2022-09-29T13:36:55.598Z,6.20
2022-09-29T13:40:09.097Z,5.00
2022-09-29T13:43:18.602Z,5.80
2022-09-29T13:46:25.688Z,6.60
2022-09-29T13:49:32.565Z,4.40
2022-09-29T13:52:39.587Z,7.20
2022-09-29T13:55:52.770Z,5.10
2022-09-29T13:59:02.661Z,3.90
2022-09-29T14:02:12.635Z,4.20
2022-09-29T14:05:22.707Z,3.50
2022-09-29T14:08:50.747Z,4.60
2022-09-29T14:12:20.950Z,5.40
2022-09-29T14:15:31.839Z,7.70
2022-09-29T14:18:43.699Z,9.60
2022-09-29T14:21:53.667Z,5.70
2022-09-29T14:25:00.714Z,4.60
2022-09-29T14:28:10.707Z,5.70
2022-09-29T14:31:17.835Z,4.20
2022-09-29T14:34:36.829Z,8.40
2022-09-29T14:37:55.742Z,5.00
2022-09-29T14:41:02.730Z,7.00
2022-09-29T14:44:09.736Z,5.50
2022-09-29T14:47:16.787Z,5.30
2022-09-29T14:50:23.771Z,9.80
2022-09-29T14:53:32.807Z,4.60
2022-09-29T14:56:41.852Z,5.60
2022-09-29T14:59:54.831Z,7.10
2022-09-29T15:03:27.183Z,5.40
2022-09-29T15:06:38.826Z,8.30
2022-09-29T15:09:45.879Z,5.50
2022-09-29T15:12:52.806Z,9.70
2022-09-29T15:15:59.915Z,12.50
2022-09-29T15:19:09.881Z,12.50
2022-09-29T15:22:21.090Z,9.60
2022-09-29T15:25:30.131Z,11.40
2022-09-29T15:28:39.905Z,7.00
2022-09-29T15:31:47.385Z,9.80
2022-09-29T15:34:56.225Z,8.80
2022-09-29T15:38:07.950Z,7.30
2022-09-29T15:41:29.072Z,13.20
2022-09-29T15:44:41.962Z,11.40
2022-09-29T15:47:50.980Z,10.60
2022-09-29T15:51:09.911Z,20.00
2022-09-29T15:54:20.211Z,8.90
2022-09-29T15:57:32.000Z,9.70
2022-09-29T16:00:42.040Z,12.20
2022-09-29T16:04:05.373Z,7.70
2022-09-29T16:07:24.441Z,8.10
2022-09-29T16:10:40.152Z,9.10
2022-09-29T16:13:53.023Z,8.00
2022-09-29T16:17:00.042Z,6.50
2022-09-29T16:20:10.121Z,13.20
2022-09-29T16:23:19.957Z,6.80
2022-09-29T16:26:33.139Z,6.60
2022-09-29T16:29:46.149Z,10.50
2022-09-29T16:33:01.099Z,13.20
2022-09-29T16:36:27.416Z,10.30
2022-09-29T16:39:38.219Z,10.40
2022-09-29T16:42:49.219Z,15.70
2022-09-29T16:49:35.025Z,7.90
2022-09-29T16:52:46.128Z,8.00
2022-09-29T16:55:56.100Z,11.30
2022-09-29T16:59:46.085Z,14.50
2022-09-29T17:03:30.383Z,10.30
2022-09-29T17:06:38.166Z,8.20
2022-09-29T17:09:45.257Z,7.70
2022-09-29T17:12:58.214Z,5.70
2022-09-29T17:16:09.326Z,9.40
2022-09-29T17:19:17.294Z,6.70
2022-09-29T17:22:25.186Z,9.70
2022-09-29T17:25:39.326Z,9.00
2022-09-29T17:28:50.206Z,7.90
2022-09-29T17:32:03.230Z,9.40
2022-09-29T17:35:13.281Z,8.80
2022-09-29T17:38:34.656Z,9.20
2022-09-29T17:42:01.315Z,12.80
2022-09-29T17:45:18.474Z,9.90
2022-09-29T17:48:36.356Z,9.30
2022-09-29T17:52:28.062Z,8.70
2022-09-29T17:56:07.330Z,9.10
2022-09-29T17:59:19.274Z,9.70
2022-09-29T18:02:39.540Z,8.60
2022-09-29T18:06:10.419Z,7.10
2022-09-29T18:09:56.767Z,9.10
2022-09-29T18:13:23.467Z,8.20
2022-09-29T18:20:29.319Z,7.40
2022-09-29T18:23:47.447Z,9.80
2022-09-29T18:27:01.510Z,7.90
2022-09-29T18:30:08.443Z,13.20
2022-09-29T18:33:24.752Z,11.60
2022-09-29T18:36:41.386Z,9.60
2022-09-29T18:39:54.489Z,8.60
2022-09-29T18:43:06.440Z,7.70
2022-09-29T18:46:14.753Z,8.90
2022-09-29T18:49:25.439Z,7.30
2022-09-29T18:52:36.546Z,10.20
2022-09-29T18:55:50.450Z,8.20
2022-09-29T18:59:06.011Z,10.90
2022-09-29T19:02:13.578Z,11.20
2022-09-29T19:06:01.208Z,11.10
2022-09-29T19:09:08.502Z,11.90
2022-09-29T19:12:19.441Z,7.80
2022-09-29T19:15:35.695Z,6.90
2022-09-29T19:18:47.555Z,13.30
2022-09-29T19:22:01.525Z,7.90
2022-09-29T19:25:14.549Z,8.40
2022-09-29T19:28:27.565Z,7.40
2022-09-29T19:31:39.751Z,12.30
2022-09-29T19:34:47.615Z,10.20
2022-09-29T19:37:57.589Z,11.90
2022-09-29T19:41:09.582Z,11.60
2022-09-29T19:44:19.594Z,11.90
2022-09-29T19:47:26.912Z,11.20
2022-09-29T19:50:50.522Z,10.00
2022-09-29T19:54:00.632Z,9.90
2022-09-29T19:57:13.693Z,11.50
2022-09-29T20:03:40.606Z,9.70
2022-09-29T20:06:48.576Z,13.70
2022-09-29T20:10:02.644Z,10.40
2022-09-29T20:13:12.556Z,10.80
2022-09-29T20:16:22.753Z,10.20
2022-09-29T20:19:33.744Z,11.30
2022-09-29T20:22:46.726Z,11.50
2022-09-29T20:26:00.793Z,10.70
2022-09-29T20:29:30.722Z,11.70
2022-09-29T20:33:03.693Z,10.20
2022-09-29T20:36:16.772Z,10.50
2022-09-29T20:39:26.015Z,11.50
2022-09-29T20:42:33.660Z,13.00
2022-09-29T20:45:52.878Z,14.30
2022-09-29T20:49:06.559Z,11.60
2022-09-29T20:52:13.710Z,11.50
2022-09-29T20:55:26.707Z,11.00
2022-09-29T20:58:45.714Z,12.60
2022-09-29T21:01:51.812Z,11.30
2022-09-29T21:05:02.660Z,10.40
2022-09-29T21:08:10.913Z,10.80
2022-09-29T21:11:23.805Z,11.30
2022-09-29T21:14:30.976Z,11.40
2022-09-29T21:17:43.715Z,10.40
2022-09-29T21:20:58.789Z,10.00
2022-09-29T21:24:05.835Z,10.80
2022-09-29T21:27:12.773Z,10.70
2022-09-29T21:30:23.813Z,9.40
2022-09-29T21:33:33.792Z,9.50
2022-09-29T21:36:45.962Z,7.40
2022-09-29T21:39:55.936Z,8.50
2022-09-29T21:43:03.852Z,7.90
2022-09-29T21:46:16.965Z,7.50
2022-09-29T21:49:27.823Z,7.90
2022-09-29T21:52:37.788Z,8.10
2022-09-29T21:55:49.046Z,11.10
2022-09-29T21:58:59.874Z,8.40
2022-09-29T22:02:53.608Z,9.20
2022-09-29T22:05:58.949Z,8.60
2022-09-29T22:09:05.999Z,8.40
2022-09-29T22:12:13.044Z,9.10
2022-09-29T22:15:26.027Z,8.00
2022-09-29T22:18:42.265Z,9.70
2022-09-29T22:21:52.958Z,9.80
2022-09-29T22:25:12.062Z,8.40
2022-09-29T22:29:04.672Z,8.80
2022-09-29T22:32:23.094Z,10.00
2022-09-29T22:35:36.965Z,8.60
2022-09-29T22:38:45.046Z,9.10
2022-09-29T22:41:54.987Z,9.10
2022-09-29T22:45:02.051Z,8.80
2022-09-29T22:48:15.067Z,9.90
2022-09-29T22:51:25.053Z,7.90
2022-09-29T22:54:35.010Z,9.50
2022-09-29T22:57:42.024Z,8.90
2022-09-29T23:00:52.040Z,8.70
2022-09-29T23:04:06.154Z,11.60
2022-09-29T23:07:16.117Z,9.90
2022-09-29T23:10:25.116Z,10.40
2022-09-29T23:13:36.118Z,7.60
2022-09-29T23:16:46.148Z,9.30
2022-09-29T23:19:56.178Z,7.90
2022-09-29T23:23:09.193Z,8.40
2022-09-29T23:26:19.143Z,8.00
2022-09-29T23:29:30.168Z,8.30
2022-09-29T23:32:40.334Z,6.90
2022-09-29T23:35:53.161Z,6.30
2022-09-29T23:39:04.211Z,6.70
2022-09-29T23:42:14.501Z,5.80
2022-09-29T23:45:30.884Z,6.60
2022-09-29T23:48:38.201Z,8.40
2022-09-29T23:51:48.209Z,7.00
2022-09-29T23:54:58.254Z,6.70
2022-09-29T23:58:05.173Z,6.30
